サンフランシスコ の空港の天気 - METARとTAF

サンフランシスコ国際空港 ( KSFO / SFO ) - アメリカ カリフォルニア州サンマテオ郡
飛行場実況気象(Metar)
観測時間04/26 09:22 PDT (04/26 16:22 UTC)
風向・風速静穏 0m/s
視程10km以上
天気現象
全天の4割程度の雲 雲底高度 300m
気温13.3℃
湿度80%
気圧1015hPa
METARKSFO 261622Z 00000KT 9SM SCT010 13/10 A2998 RMK AO2 T01330100
過去の天気等 Google飛行場航空写真 Wunderground天気予報

過去48時間のMETAR

飛行場予報(TAF)
発表時間: 4/26 08:01 PDT (4/26 15:01 UTC)
予報対象時間: 26日8時 PDT ~ 27日11時 PDT
風向・風速不定 2m/s
視程10km以上
全天の8割程度の雲 雲底高度 270m
26日10時 PDT から
風向・風速北 3m/s
視程10km以上
少しの雲 雲底高度 370m
全天の4割程度の雲 雲底高度 7620m
26日14時 PDT から
風向・風速西北西 7m/s
視程10km以上
少しの雲 雲底高度 370m
全天の4割程度の雲 雲底高度 7620m
26日16時 PDT から
風向・風速西北西 10m/s 瞬間風速 13m/s
視程10km以上
少しの雲 雲底高度 300m
全天の4割程度の雲 雲底高度 7620m
26日23時 PDT から
風向・風速西北西 8m/s
視程10km以上
全天の4割程度の雲 雲底高度 240m
27日1時 PDT から
風向・風速西北西 4m/s
視程10km以上
全天の8割程度の雲 雲底高度 240m
KSFO 261501Z 2615/2718 VRB04KT P6SM BKN009
FM261700 35005KT P6SM FEW012 SCT250
FM262100 29014KT P6SM FEW012 SCT250
FM262300 30020G25KT P6SM FEW010 SCT250
FM270600 29015KT P6SM SCT008
FM270800 29008KT P6SM BKN008